createdAt,value
2019-05-01T00:00:23.956Z,23.20
2019-05-01T00:01:24.143Z,23.20
2019-05-01T00:02:24.331Z,22.80
2019-05-01T00:03:24.515Z,22.90
2019-05-01T00:04:24.700Z,23.50
2019-05-01T00:05:24.886Z,23.30
2019-05-01T00:06:25.069Z,21.70
2019-05-01T00:07:25.254Z,24.00
2019-05-01T00:08:25.438Z,23.40
2019-05-01T00:09:25.621Z,22.10
2019-05-01T00:10:25.812Z,23.10
2019-05-01T00:11:26.001Z,23.40
2019-05-01T00:12:26.184Z,23.80
2019-05-01T00:13:26.366Z,22.20
2019-05-01T00:14:26.552Z,22.20
2019-05-01T00:15:26.737Z,22.30
2019-05-01T00:16:26.921Z,22.50
2019-05-01T00:17:27.818Z,23.30
2019-05-01T00:18:27.291Z,23.50
2019-05-01T00:19:27.474Z,22.40
2019-05-01T00:20:27.658Z,22.50
2019-05-01T00:21:27.841Z,23.10
2019-05-01T00:22:28.024Z,23.30
2019-05-01T00:23:28.215Z,22.80
2019-05-01T00:24:28.391Z,21.70
2019-05-01T00:25:28.579Z,22.10
2019-05-01T00:26:28.767Z,23.20
2019-05-01T00:27:28.951Z,23.30
2019-05-01T00:28:29.137Z,24.30
2019-05-01T00:29:29.315Z,23.90
2019-05-01T00:30:30.367Z,24.50
2019-05-01T00:31:29.689Z,26.50
2019-05-01T00:32:29.877Z,24.70
2019-05-01T00:33:30.058Z,24.10
2019-05-01T00:34:30.240Z,24.30
2019-05-01T00:35:30.425Z,24.50
2019-05-01T00:36:30.612Z,23.20
2019-05-01T00:37:30.797Z,25.00
2019-05-01T00:38:30.978Z,23.70
2019-05-01T00:39:31.163Z,25.40
2019-05-01T00:40:31.356Z,25.20
2019-05-01T00:41:31.536Z,26.10
2019-05-01T00:42:31.718Z,23.20
2019-05-01T00:43:31.905Z,24.60
2019-05-01T00:44:32.110Z,25.20
2019-05-01T00:45:32.289Z,24.20
2019-05-01T00:46:32.477Z,25.30
2019-05-01T00:47:32.670Z,24.60
2019-05-01T00:48:32.865Z,26.20
2019-05-01T00:49:33.048Z,24.50
2019-05-01T00:50:33.233Z,24.50
2019-05-01T00:51:33.420Z,25.70
2019-05-01T00:52:33.605Z,26.30
2019-05-01T00:53:33.791Z,25.30
2019-05-01T00:54:33.974Z,25.10
2019-05-01T00:55:34.168Z,25.60
2019-05-01T00:56:34.353Z,26.30
2019-05-01T00:57:34.542Z,25.60
2019-05-01T00:58:34.718Z,24.90
2019-05-01T00:59:34.900Z,25.90
2019-05-01T01:00:42.922Z,26.80
2019-05-01T01:01:35.276Z,26.80
2019-05-01T01:02:35.462Z,25.40
2019-05-01T01:03:35.640Z,26.60
2019-05-01T01:04:35.835Z,25.70
2019-05-01T01:05:36.018Z,26.40
2019-05-01T01:06:36.204Z,26.40
2019-05-01T01:07:36.387Z,25.50
2019-05-01T01:08:36.583Z,25.10
2019-05-01T01:09:36.762Z,26.50
2019-05-01T01:10:36.954Z,25.30
2019-05-01T01:11:37.138Z,25.40
2019-05-01T01:12:37.327Z,25.50
2019-05-01T01:13:37.511Z,26.50
2019-05-01T01:14:37.695Z,26.10
2019-05-01T01:15:37.873Z,26.90
2019-05-01T01:16:38.066Z,25.30
2019-05-01T01:17:38.243Z,25.60
2019-05-01T01:18:38.435Z,25.70
2019-05-01T01:19:38.621Z,25.40
2019-05-01T01:20:38.812Z,25.50
2019-05-01T01:21:38.991Z,25.50
2019-05-01T01:22:39.183Z,25.70
2019-05-01T01:23:39.369Z,25.40
2019-05-01T01:24:39.559Z,24.30
2019-05-01T01:25:39.737Z,25.10
2019-05-01T01:26:39.930Z,25.10
2019-05-01T01:27:40.113Z,26.30
2019-05-01T01:28:40.305Z,25.30
2019-05-01T01:29:40.478Z,25.60
2019-05-01T01:30:40.668Z,25.30
2019-05-01T01:31:40.857Z,25.60
2019-05-01T01:32:41.048Z,25.00
2019-05-01T01:33:41.220Z,24.20
2019-05-01T01:34:41.422Z,24.70
2019-05-01T01:35:41.605Z,25.80
2019-05-01T01:36:41.792Z,24.70
2019-05-01T01:37:41.972Z,24.30
2019-05-01T01:38:42.164Z,26.10
2019-05-01T01:39:42.348Z,25.10
2019-05-01T01:40:42.531Z,24.60
2019-05-01T01:41:42.726Z,25.10
2019-05-01T01:42:42.905Z,24.90
2019-05-01T01:43:43.088Z,25.10
2019-05-01T01:44:43.275Z,24.50
2019-05-01T01:45:43.459Z,24.50
2019-05-01T01:46:43.641Z,25.20
2019-05-01T01:47:43.829Z,24.90
2019-05-01T01:48:44.011Z,25.40
2019-05-01T01:49:44.194Z,24.50
2019-05-01T01:50:44.380Z,24.30
2019-05-01T01:51:44.569Z,23.80
2019-05-01T01:52:44.749Z,24.20
2019-05-01T01:53:44.936Z,24.40
2019-05-01T01:54:45.122Z,24.90
2019-05-01T01:55:45.339Z,25.00
2019-05-01T01:56:45.500Z,25.10
2019-05-01T01:57:45.684Z,24.30
2019-05-01T01:58:45.871Z,25.40
2019-05-01T01:59:46.050Z,24.50
2019-05-01T02:00:46.239Z,25.40
2019-05-01T02:01:46.424Z,26.00
2019-05-01T02:02:46.601Z,26.00
2019-05-01T02:03:46.787Z,25.30
2019-05-01T02:04:46.976Z,25.40
2019-05-01T02:05:47.163Z,25.80
2019-05-01T02:06:47.347Z,25.60
2019-05-01T02:07:47.535Z,26.10
2019-05-01T02:08:56.318Z,26.30
2019-05-01T02:09:48.764Z,26.90
2019-05-01T02:10:48.100Z,26.00
2019-05-01T02:11:48.284Z,25.80
2019-05-01T02:12:48.471Z,27.70
2019-05-01T02:13:48.655Z,26.10
2019-05-01T02:14:48.865Z,26.90
2019-05-01T02:15:49.045Z,27.10
2019-05-01T02:16:49.245Z,27.10
2019-05-01T02:17:50.148Z,26.70
2019-05-01T02:18:49.586Z,27.80
2019-05-01T02:19:49.770Z,27.60
2019-05-01T02:20:49.954Z,27.70
2019-05-01T02:21:50.140Z,27.70
2019-05-01T02:22:50.331Z,28.10
2019-05-01T02:23:50.514Z,27.30
2019-05-01T02:24:50.697Z,28.30
2019-05-01T02:25:50.893Z,26.80
2019-05-01T02:26:51.071Z,28.20
2019-05-01T02:27:51.257Z,27.20
2019-05-01T02:28:51.440Z,27.70
2019-05-01T02:29:51.632Z,28.80
2019-05-01T02:30:51.819Z,27.30
2019-05-01T02:31:52.005Z,28.80
2019-05-01T02:32:52.185Z,27.60
2019-05-01T02:33:52.378Z,26.80
2019-05-01T02:34:52.559Z,25.30
2019-05-01T02:35:52.745Z,27.80
2019-05-01T02:36:52.930Z,27.70
2019-05-01T02:37:53.112Z,27.10
2019-05-01T02:38:53.307Z,28.30
2019-05-01T02:39:53.497Z,28.40
2019-05-01T02:40:53.688Z,27.40
2019-05-01T02:41:53.867Z,26.30
2019-05-01T02:42:54.052Z,27.50
2019-05-01T02:43:54.240Z,27.10
2019-05-01T02:44:54.429Z,26.90
2019-05-01T02:45:54.620Z,26.10
2019-05-01T02:46:54.803Z,27.40
2019-05-01T02:47:54.990Z,27.00
2019-05-01T02:48:55.172Z,26.30
2019-05-01T02:49:55.368Z,26.50
2019-05-01T02:50:55.546Z,27.00
2019-05-01T02:51:55.733Z,26.10
2019-05-01T02:52:55.916Z,26.60
2019-05-01T02:53:56.107Z,25.40
2019-05-01T02:54:56.300Z,26.60
2019-05-01T02:55:56.482Z,26.30
2019-05-01T02:56:56.673Z,26.50
2019-05-01T02:57:56.862Z,26.20
2019-05-01T02:58:57.054Z,26.20
2019-05-01T02:59:57.234Z,25.70
2019-05-01T03:00:57.417Z,25.60
2019-05-01T03:01:57.606Z,27.10
2019-05-01T03:02:57.784Z,26.00
2019-05-01T03:03:57.967Z,25.80
2019-05-01T03:04:58.162Z,26.10
2019-05-01T03:05:58.343Z,25.50
2019-05-01T03:06:58.525Z,25.30
2019-05-01T03:07:58.710Z,26.00
2019-05-01T03:08:58.901Z,25.00
2019-05-01T03:09:59.082Z,25.10
2019-05-01T03:10:59.271Z,25.20
2019-05-01T03:14:42.322Z,25.10
2019-05-01T03:15:42.496Z,25.80
2019-05-01T03:16:42.686Z,26.50
2019-05-01T03:17:42.872Z,25.50
2019-05-01T03:18:43.055Z,26.90
2019-05-01T03:19:43.238Z,27.10
2019-05-01T03:20:43.424Z,27.80
2019-05-01T03:21:43.605Z,27.80
2019-05-01T03:22:43.791Z,27.30
2019-05-01T03:23:43.973Z,27.40
2019-05-01T03:24:44.161Z,28.10
2019-05-01T03:25:44.334Z,26.50
2019-05-01T03:26:44.524Z,26.60
2019-05-01T03:27:44.708Z,27.60
2019-05-01T03:28:44.898Z,26.70
2019-05-01T03:29:45.081Z,28.00
2019-05-01T03:30:45.265Z,28.70
2019-05-01T03:32:12.914Z,27.50
2019-05-01T03:32:45.630Z,26.10
2019-05-01T03:33:45.827Z,28.10
2019-05-01T03:34:51.965Z,28.60
2019-05-01T03:35:46.187Z,28.90
2019-05-01T03:36:46.374Z,29.40
2019-05-01T03:37:46.547Z,29.60
2019-05-01T03:38:46.730Z,28.20
2019-05-01T03:39:46.911Z,29.30
2019-05-01T03:40:47.096Z,29.90
2019-05-01T03:41:47.303Z,30.20
2019-05-01T03:42:47.492Z,30.70
2019-05-01T03:43:47.665Z,29.70
2019-05-01T03:44:47.837Z,30.20
2019-05-01T03:45:47.989Z,30.50
2019-05-01T03:46:48.181Z,30.40
2019-05-01T03:47:48.413Z,29.40
2019-05-01T03:48:48.568Z,28.70
2019-05-01T03:49:48.757Z,29.80
2019-05-01T03:50:48.943Z,29.70
2019-05-01T03:51:49.114Z,28.80
2019-05-01T03:52:49.309Z,28.90
2019-05-01T03:53:49.497Z,30.40
2019-05-01T03:54:49.697Z,30.20
2019-05-01T03:55:49.860Z,29.40
2019-05-01T03:56:50.050Z,28.80
2019-05-01T03:57:50.226Z,29.00
2019-05-01T03:58:50.427Z,28.40
2019-05-01T03:59:50.584Z,27.90
2019-05-01T04:00:50.773Z,27.00
2019-05-01T04:01:50.961Z,29.50
2019-05-01T04:02:51.138Z,29.20
2019-05-01T04:03:51.328Z,28.80
2019-05-01T04:04:51.520Z,27.80
2019-05-01T04:05:51.701Z,28.30
2019-05-01T04:06:51.877Z,27.10
2019-05-01T04:07:52.073Z,28.50
2019-05-01T04:08:52.262Z,29.40
2019-05-01T04:09:52.447Z,28.80
2019-05-01T04:10:52.624Z,28.40
2019-05-01T04:11:52.821Z,28.30
2019-05-01T04:12:53.019Z,29.10
2019-05-01T04:13:53.199Z,28.70
2019-05-01T04:14:53.374Z,28.90
2019-05-01T04:15:53.564Z,29.10
2019-05-01T04:16:53.745Z,28.60
2019-05-01T04:17:53.940Z,29.10
2019-05-01T04:18:54.119Z,29.20
2019-05-01T04:19:54.313Z,28.40
2019-05-01T04:20:54.495Z,27.90
2019-05-01T04:21:54.703Z,28.20
2019-05-01T04:22:54.857Z,27.90
2019-05-01T04:23:55.048Z,27.20
2019-05-01T04:24:55.225Z,27.00
2019-05-01T04:25:55.409Z,27.30
2019-05-01T04:26:55.588Z,26.00
2019-05-01T04:27:58.652Z,27.90
2019-05-01T04:28:55.953Z,26.30
2019-05-01T04:29:56.132Z,26.30
2019-05-01T04:30:56.315Z,25.90
2019-05-01T04:31:56.495Z,26.20
2019-05-01T04:32:56.684Z,26.10
2019-05-01T04:33:56.870Z,26.60
2019-05-01T04:34:57.070Z,26.00
2019-05-01T04:35:57.244Z,26.50
2019-05-01T04:36:57.427Z,26.90
2019-05-01T04:37:57.605Z,27.40
2019-05-01T04:38:57.791Z,26.60
2019-05-01T04:39:57.988Z,26.40
2019-05-01T04:40:58.166Z,26.00
2019-05-01T04:41:58.347Z,25.60
2019-05-01T04:42:58.529Z,26.20
2019-05-01T04:43:58.706Z,26.20
2019-05-01T04:44:58.894Z,26.10
2019-05-01T04:45:59.082Z,26.00
2019-05-01T04:46:59.270Z,26.80
2019-05-01T04:47:59.450Z,27.10
2019-05-01T04:48:59.634Z,27.00
2019-05-01T04:49:59.814Z,26.20
2019-05-01T04:50:59.994Z,28.20
2019-05-01T04:52:00.176Z,27.80
2019-05-01T04:53:00.361Z,27.00
2019-05-01T04:54:00.552Z,28.90
2019-05-01T04:55:00.733Z,28.40
2019-05-01T04:56:00.906Z,27.90
2019-05-01T04:57:01.089Z,27.80
2019-05-01T04:58:01.275Z,28.80
2019-05-01T04:59:01.451Z,28.40
2019-05-01T05:00:01.638Z,27.50
2019-05-01T05:01:01.823Z,27.80
2019-05-01T05:02:02.012Z,28.20
2019-05-01T05:03:04.847Z,27.60
2019-05-01T05:04:02.367Z,28.00
2019-05-01T05:05:02.549Z,27.10
2019-05-01T05:06:02.747Z,27.30
2019-05-01T05:07:02.923Z,28.10
2019-05-01T05:08:03.104Z,28.50
2019-05-01T05:09:03.288Z,27.70
2019-05-01T05:10:03.475Z,29.50
2019-05-01T05:11:03.655Z,28.10
2019-05-01T05:12:03.833Z,28.70
2019-05-01T05:13:04.028Z,27.50
2019-05-01T05:14:04.213Z,28.50
2019-05-01T05:15:04.406Z,28.30
2019-05-01T05:16:04.590Z,28.20
2019-05-01T05:17:04.771Z,28.20
2019-05-01T05:18:04.955Z,26.30
2019-05-01T05:19:05.140Z,26.30
2019-05-01T05:20:05.322Z,26.20
2019-05-01T05:21:05.498Z,27.60
2019-05-01T05:22:05.687Z,27.10
2019-05-01T05:23:05.867Z,27.80
2019-05-01T05:24:06.050Z,26.50
2019-05-01T05:25:06.252Z,26.30
2019-05-01T05:26:06.437Z,27.50
2019-05-01T05:27:06.621Z,25.80
2019-05-01T05:28:06.820Z,26.70
2019-05-01T05:29:07.013Z,25.70
2019-05-01T05:30:07.205Z,26.10
2019-05-01T05:31:07.391Z,27.60
2019-05-01T05:32:07.581Z,27.50
2019-05-01T05:33:18.010Z,26.30
2019-05-01T05:34:07.956Z,26.80
2019-05-01T05:35:08.141Z,26.90
2019-05-01T05:36:08.331Z,26.20
2019-05-01T05:37:08.517Z,26.60
2019-05-01T05:38:08.687Z,25.30
2019-05-01T05:39:08.869Z,25.70
2019-05-01T05:40:09.053Z,25.50
2019-05-01T05:41:09.238Z,24.60
2019-05-01T05:42:09.422Z,24.70
2019-05-01T05:43:09.601Z,25.30
2019-05-01T05:44:09.791Z,24.40
2019-05-01T05:45:09.978Z,25.90
2019-05-01T05:46:10.165Z,24.60
2019-05-01T05:47:10.349Z,25.60
2019-05-01T05:48:10.531Z,24.40
2019-05-01T05:49:10.737Z,24.70
2019-05-01T05:50:10.914Z,26.00
2019-05-01T05:51:11.091Z,25.70
2019-05-01T05:52:11.273Z,26.00
2019-05-01T05:53:11.462Z,25.40
2019-05-01T05:54:11.646Z,25.50
2019-05-01T05:55:11.827Z,25.90
2019-05-01T05:56:12.009Z,25.70
2019-05-01T05:57:12.201Z,25.70
2019-05-01T05:58:12.382Z,26.60
2019-05-01T05:59:12.568Z,26.20
2019-05-01T06:00:12.740Z,25.50
2019-05-01T06:01:12.929Z,25.90
2019-05-01T06:02:13.115Z,26.10
2019-05-01T06:03:13.307Z,25.10
2019-05-01T06:04:13.498Z,25.20
2019-05-01T06:05:13.675Z,25.40
2019-05-01T06:06:13.867Z,25.30
2019-05-01T06:07:14.048Z,24.20
2019-05-01T06:08:14.229Z,24.40
2019-05-01T06:09:15.644Z,24.80
2019-05-01T06:10:18.427Z,23.70
2019-05-01T06:11:14.783Z,23.10
2019-05-01T06:12:14.965Z,23.90
2019-05-01T06:13:18.000Z,23.30
2019-05-01T06:14:15.335Z,24.40
2019-05-01T06:15:15.515Z,24.00
2019-05-01T06:16:16.142Z,24.00
2019-05-01T06:17:15.895Z,23.50
2019-05-01T06:18:16.083Z,24.30
2019-05-01T06:19:16.395Z,24.50
2019-05-01T06:20:16.448Z,24.80
2019-05-01T06:21:16.637Z,25.00
2019-05-01T06:22:16.828Z,25.20
2019-05-01T06:23:20.571Z,24.40
2019-05-01T06:24:17.192Z,25.10
2019-05-01T06:25:23.120Z,24.10
2019-05-01T06:26:17.557Z,25.50
2019-05-01T06:27:17.747Z,26.00
2019-05-01T06:28:19.961Z,26.20
2019-05-01T06:29:18.134Z,25.60
2019-05-01T06:30:18.319Z,24.90
2019-05-01T06:31:23.285Z,25.90
2019-05-01T06:32:18.683Z,26.60
2019-05-01T06:33:18.869Z,26.40
2019-05-01T06:34:19.060Z,26.10
2019-05-01T06:35:19.242Z,26.60
2019-05-01T06:36:19.430Z,25.60
2019-05-01T06:37:20.855Z,24.80
2019-05-01T06:38:19.815Z,26.30
2019-05-01T06:39:19.998Z,26.20
2019-05-01T06:40:22.542Z,26.50
2019-05-01T06:41:20.363Z,26.00
2019-05-01T06:42:20.535Z,25.70
2019-05-01T06:43:25.205Z,24.30
2019-05-01T06:44:20.920Z,24.20
2019-05-01T06:45:21.105Z,24.50
2019-05-01T06:46:22.095Z,25.40
2019-05-01T06:47:21.468Z,24.80
2019-05-01T06:48:21.654Z,25.70
2019-05-01T06:49:24.223Z,23.70
2019-05-01T06:50:22.029Z,25.20
2019-05-01T06:51:22.214Z,23.90
2019-05-01T06:52:25.012Z,24.90
2019-05-01T06:53:22.590Z,25.00
2019-05-01T06:54:22.778Z,25.20
2019-05-01T06:55:27.171Z,25.20
2019-05-01T06:56:23.148Z,25.40
2019-05-01T06:57:23.341Z,25.10
2019-05-01T06:58:23.530Z,24.10
2019-05-01T06:59:26.339Z,25.10
2019-05-01T07:00:23.897Z,24.70
2019-05-01T07:01:24.150Z,24.40
2019-05-01T07:02:24.262Z,24.30
2019-05-01T07:03:24.452Z,24.10
2019-05-01T07:04:24.650Z,24.60
2019-05-01T07:05:24.812Z,26.00
2019-05-01T07:06:26.041Z,25.90
2019-05-01T07:07:25.889Z,25.80
2019-05-01T07:08:29.341Z,25.20
2019-05-01T07:09:27.986Z,25.40
2019-05-01T07:10:31.754Z,25.70
2019-05-01T07:11:25.978Z,25.70
2019-05-01T07:12:28.317Z,24.60
2019-05-01T07:13:26.280Z,26.30
2019-05-01T07:14:26.465Z,25.70
2019-05-01T07:15:27.165Z,24.50
2019-05-01T07:16:26.861Z,25.50
2019-05-01T07:17:27.043Z,26.20
2019-05-01T07:18:29.215Z,25.10
2019-05-01T07:19:27.407Z,24.90
2019-05-01T07:20:27.599Z,25.10
2019-05-01T07:21:32.381Z,24.30
2019-05-01T07:22:27.963Z,25.60
2019-05-01T07:23:28.151Z,25.30
2019-05-01T07:24:29.142Z,26.00
2019-05-01T07:25:28.529Z,25.10
2019-05-01T07:26:28.712Z,25.90
2019-05-01T07:27:28.906Z,24.80
2019-05-01T07:28:34.089Z,24.90
2019-05-01T07:29:29.277Z,25.00
2019-05-01T07:30:29.472Z,24.60
2019-05-01T07:31:30.914Z,26.70
2019-05-01T07:32:29.855Z,26.90
2019-05-01T07:33:30.047Z,25.40
2019-05-01T07:34:30.229Z,27.20
2019-05-01T07:35:33.094Z,26.40
2019-05-01T07:36:30.600Z,25.70
2019-05-01T07:37:30.790Z,26.50
2019-05-01T07:38:32.874Z,25.20
2019-05-01T07:39:32.714Z,26.30
2019-05-01T07:40:31.383Z,27.00
2019-05-01T07:41:33.969Z,26.80
2019-05-01T07:42:31.766Z,25.80
2019-05-01T07:43:31.950Z,24.10
2019-05-01T07:44:33.782Z,24.20
2019-05-01T07:45:32.321Z,24.40
2019-05-01T07:46:32.502Z,23.60
2019-05-01T07:47:32.690Z,24.20
2019-05-01T07:48:35.977Z,24.30
2019-05-01T07:49:33.064Z,25.20
2019-05-01T07:50:33.246Z,26.10
2019-05-01T07:51:33.446Z,25.80
2019-05-01T07:52:33.637Z,25.10
2019-05-01T07:53:33.827Z,23.50
2019-05-01T07:54:37.730Z,23.80
2019-05-01T07:55:34.217Z,23.60
2019-05-01T07:56:34.397Z,23.80
2019-05-01T07:57:39.553Z,23.70
2019-05-01T07:58:34.777Z,24.70
2019-05-01T07:59:34.975Z,24.40
2019-05-01T08:00:36.907Z,23.10
2019-05-01T08:01:35.346Z,23.50
2019-05-01T08:02:35.547Z,23.90
2019-05-01T08:03:37.990Z,23.70
2019-05-01T08:04:36.671Z,24.10
2019-05-01T08:05:36.116Z,24.20
2019-05-01T08:06:36.303Z,24.00
2019-05-01T08:07:36.512Z,23.00
2019-05-01T08:08:39.542Z,23.00
2019-05-01T08:09:36.895Z,24.10
2019-05-01T08:10:37.092Z,23.10
2019-05-01T08:11:39.113Z,23.40
2019-05-01T08:12:37.487Z,23.40
2019-05-01T08:13:37.685Z,23.50
2019-05-01T08:14:37.877Z,23.70
2019-05-01T08:15:38.076Z,23.90
2019-05-01T08:16:42.422Z,24.00
2019-05-01T08:17:38.452Z,23.00
2019-05-01T08:18:38.641Z,22.90
2019-05-01T08:19:39.378Z,23.30
2019-05-01T08:20:39.014Z,22.90
2019-05-01T08:21:39.213Z,23.40
2019-05-01T08:22:39.404Z,23.60
2019-05-01T08:23:42.571Z,23.00
2019-05-01T08:24:39.810Z,23.10
2019-05-01T08:25:39.967Z,22.70
2019-05-01T08:26:44.252Z,23.20
2019-05-01T08:27:40.350Z,22.80
2019-05-01T08:28:40.586Z,23.80
2019-05-01T08:29:42.172Z,23.20
2019-05-01T08:30:41.005Z,22.20
2019-05-01T08:31:41.192Z,23.20
2019-05-01T08:32:41.386Z,21.60
2019-05-01T08:33:44.780Z,23.60
2019-05-01T08:34:48.754Z,23.30
2019-05-01T08:35:41.958Z,23.80
2019-05-01T08:36:42.717Z,23.50
2019-05-01T08:37:42.345Z,23.90
2019-05-01T08:38:42.534Z,23.20
2019-05-01T08:39:44.166Z,23.90
2019-05-01T08:40:42.939Z,25.20
2019-05-01T08:41:43.119Z,23.90
2019-05-01T08:42:44.209Z,24.90
2019-05-01T08:43:43.502Z,23.80
2019-05-01T08:44:43.684Z,24.70
2019-05-01T08:45:43.899Z,24.70
2019-05-01T08:46:46.918Z,24.10
2019-05-01T08:47:44.278Z,23.90
2019-05-01T08:48:44.478Z,23.30
2019-05-01T08:49:49.503Z,23.60
2019-05-01T08:50:44.857Z,23.80
2019-05-01T08:51:45.057Z,23.10
2019-05-01T08:52:47.373Z,23.10
2019-05-01T08:53:45.443Z,23.70
2019-05-01T08:54:45.655Z,23.90
2019-05-01T08:55:47.118Z,23.70
2019-05-01T08:56:46.028Z,22.00
2019-05-01T08:57:46.238Z,22.60
2019-05-01T08:58:49.398Z,22.60
2019-05-01T08:59:46.631Z,21.90
2019-05-01T09:00:46.826Z,20.70
2019-05-01T09:01:50.604Z,21.60
2019-05-01T09:02:47.213Z,20.50
2019-05-01T09:03:49.631Z,21.10
2019-05-01T09:04:47.609Z,21.10
2019-05-01T09:05:52.037Z,20.60
2019-05-01T09:06:48.000Z,20.80
2019-05-01T09:07:51.335Z,19.50
2019-05-01T09:08:48.389Z,19.60
2019-05-01T09:09:48.588Z,20.20
2019-05-01T09:10:49.839Z,19.70
2019-05-01T09:11:48.991Z,20.10
2019-05-01T09:12:51.974Z,19.20
2019-05-01T09:13:49.372Z,18.80
2019-05-01T09:14:51.188Z,18.70
2019-05-01T09:15:49.783Z,19.10
2019-05-01T09:16:52.318Z,18.30
2019-05-01T09:17:50.182Z,18.50
2019-05-01T09:18:50.387Z,18.30
2019-05-01T09:19:50.593Z,17.40
2019-05-01T09:20:50.789Z,17.60
2019-05-01T09:21:50.995Z,18.60
2019-05-01T09:22:51.204Z,17.00
2019-05-01T09:23:53.221Z,18.00
2019-05-01T09:24:51.581Z,18.10
2019-05-01T09:25:51.797Z,18.30
2019-05-01T09:26:51.985Z,17.50
2019-05-01T09:27:52.182Z,17.30
2019-05-01T09:28:52.381Z,16.70
2019-05-01T09:29:52.865Z,16.20
2019-05-01T09:30:52.779Z,16.00
2019-05-01T09:31:52.985Z,16.00
2019-05-01T09:32:54.489Z,15.30
2019-05-01T09:33:53.396Z,14.70
2019-05-01T09:34:53.591Z,15.20
2019-05-01T09:35:53.789Z,14.40
2019-05-01T09:36:54.001Z,14.20
2019-05-01T09:37:54.201Z,14.30
2019-05-01T09:38:54.397Z,14.20
2019-05-01T09:39:54.604Z,13.90
2019-05-01T09:40:54.799Z,13.40
2019-05-01T09:41:55.006Z,14.10
2019-05-01T09:42:59.466Z,13.40
2019-05-01T09:43:55.401Z,12.70
2019-05-01T09:44:55.608Z,12.80
2019-05-01T09:45:55.801Z,12.10
2019-05-01T09:46:56.018Z,12.00
2019-05-01T09:47:56.229Z,11.80
2019-05-01T09:48:56.409Z,12.00
2019-05-01T09:49:56.606Z,10.50
2019-05-01T09:51:00.820Z,10.70
2019-05-01T09:51:57.017Z,10.80
2019-05-01T09:52:59.742Z,11.60
2019-05-01T09:53:57.476Z,10.50
2019-05-01T09:54:57.609Z,10.80
2019-05-01T09:55:57.823Z,10.70
2019-05-01T09:56:58.023Z,10.30
2019-05-01T09:57:58.227Z,10.20
2019-05-01T09:58:58.442Z,10.20
2019-05-01T09:59:58.644Z,10.20
2019-05-01T10:00:58.874Z,10.70
2019-05-01T10:02:03.064Z,10.60
2019-05-01T10:02:59.249Z,10.30
2019-05-01T10:03:59.439Z,9.30
2019-05-01T10:05:02.096Z,9.30
2019-05-01T10:05:59.837Z,9.40
2019-05-01T10:07:02.208Z,8.90
2019-05-01T10:08:04.165Z,9.10
2019-05-01T10:09:00.452Z,9.00
2019-05-01T10:10:00.656Z,9.20
2019-05-01T10:11:05.137Z,8.90
2019-05-01T10:12:01.062Z,8.70
2019-05-01T10:13:01.257Z,9.50
2019-05-01T10:14:04.094Z,9.90
2019-05-01T10:15:01.671Z,8.90
2019-05-01T10:16:01.872Z,9.60
2019-05-01T10:17:02.080Z,9.80
2019-05-01T10:18:02.328Z,9.30
2019-05-01T10:19:02.477Z,9.20
2019-05-01T10:20:02.686Z,8.90
2019-05-01T10:21:02.884Z,9.50
2019-05-01T10:22:03.762Z,9.50
2019-05-01T10:23:03.286Z,9.60
2019-05-01T10:24:03.483Z,9.70
2019-05-01T10:25:03.680Z,9.40
2019-05-01T10:26:03.882Z,9.60
2019-05-01T10:27:04.081Z,9.30
2019-05-01T10:28:07.295Z,9.10
2019-05-01T10:29:04.500Z,9.40
2019-05-01T10:30:04.688Z,9.60
2019-05-01T10:31:07.028Z,9.10
2019-05-01T10:32:05.087Z,8.90
2019-05-01T10:33:05.283Z,8.80
2019-05-01T10:34:07.582Z,9.40
2019-05-01T10:35:05.710Z,8.80
2019-05-01T10:36:05.901Z,9.10
2019-05-01T10:37:06.114Z,9.00
2019-05-01T10:38:09.346Z,8.70
2019-05-01T10:39:06.513Z,10.20
2019-05-01T10:40:06.714Z,9.50
2019-05-01T10:41:09.271Z,9.80
2019-05-01T10:42:07.119Z,9.80
2019-05-01T10:43:07.325Z,9.30
2019-05-01T10:44:07.529Z,9.40
2019-05-01T10:45:07.738Z,9.80
2019-05-01T10:46:07.940Z,9.30
2019-05-01T10:47:08.176Z,9.70
2019-05-01T10:48:08.344Z,10.30
2019-05-01T10:49:08.551Z,9.40
2019-05-01T10:50:08.743Z,9.80
2019-05-01T10:51:08.945Z,10.30
2019-05-01T10:52:14.300Z,9.10
2019-05-01T10:53:09.343Z,9.70
2019-05-01T10:54:09.546Z,9.30
2019-05-01T10:55:09.752Z,9.60
2019-05-01T10:56:09.955Z,10.40
2019-05-01T10:57:12.831Z,10.60
2019-05-01T10:58:12.762Z,10.30
2019-05-01T10:59:10.559Z,10.90
2019-05-01T11:00:10.758Z,11.70
2019-05-01T11:01:10.961Z,13.40
2019-05-01T11:02:11.156Z,13.10
2019-05-01T11:03:11.363Z,11.40
2019-05-01T11:04:11.552Z,11.60
2019-05-01T11:05:11.754Z,11.40
2019-05-01T11:06:11.947Z,11.00
2019-05-01T11:07:12.149Z,11.30
2019-05-01T11:08:12.351Z,10.90
2019-05-01T11:09:12.580Z,11.70
2019-05-01T11:10:12.805Z,10.70
2019-05-01T11:11:13.010Z,10.90
2019-05-01T11:12:13.209Z,11.30
2019-05-01T11:13:13.409Z,11.40
2019-05-01T11:14:13.619Z,12.40
2019-05-01T11:15:13.810Z,12.10
2019-05-01T11:16:14.011Z,11.50
2019-05-01T11:17:14.433Z,12.00
2019-05-01T11:18:14.516Z,11.90
2019-05-01T11:19:14.643Z,11.00
2019-05-01T11:20:14.855Z,11.80
2019-05-01T11:21:15.079Z,12.00
2019-05-01T11:22:15.280Z,11.10
2019-05-01T11:23:15.472Z,12.60
2019-05-01T11:24:15.666Z,11.90
2019-05-01T11:25:15.861Z,11.80
2019-05-01T11:26:16.058Z,12.20
2019-05-01T11:27:16.253Z,12.60
2019-05-01T11:28:16.448Z,12.40
2019-05-01T11:29:16.639Z,13.60
2019-05-01T11:30:16.867Z,11.90
2019-05-01T11:31:17.064Z,13.00
2019-05-01T11:32:17.257Z,13.70
2019-05-01T11:33:17.495Z,14.00
2019-05-01T11:34:17.690Z,12.50
2019-05-01T11:35:17.893Z,12.70
2019-05-01T11:36:18.079Z,13.20
2019-05-01T11:37:18.280Z,12.40
2019-05-01T11:38:18.477Z,13.20
2019-05-01T11:39:18.682Z,11.80
2019-05-01T11:40:18.887Z,12.50
2019-05-01T11:41:19.090Z,12.60
2019-05-01T11:42:19.271Z,12.00
2019-05-01T11:43:19.474Z,12.40
2019-05-01T11:44:19.672Z,11.80
2019-05-01T11:45:19.871Z,11.30
2019-05-01T11:46:20.074Z,12.30
2019-05-01T11:47:20.269Z,10.90
2019-05-01T11:48:20.466Z,10.60
2019-05-01T11:49:20.667Z,11.50
2019-05-01T11:50:20.857Z,12.80
2019-05-01T11:51:21.055Z,11.50
2019-05-01T11:52:21.265Z,11.40
2019-05-01T11:53:21.453Z,10.60
2019-05-01T11:54:21.656Z,11.20
2019-05-01T11:55:21.865Z,10.90
2019-05-01T11:56:22.074Z,10.80
2019-05-01T11:57:22.267Z,10.90
2019-05-01T11:58:22.458Z,11.20
2019-05-01T11:59:22.673Z,11.80
2019-05-01T12:00:22.840Z,11.40
2019-05-01T12:01:23.035Z,11.40
2019-05-01T12:02:23.238Z,10.90
2019-05-01T12:03:23.432Z,12.20
2019-05-01T12:04:23.625Z,11.30
2019-05-01T12:05:23.825Z,11.90
2019-05-01T12:06:24.027Z,11.00
2019-05-01T12:07:24.208Z,11.70
2019-05-01T12:08:24.411Z,13.20
2019-05-01T12:09:24.624Z,12.30
2019-05-01T12:10:24.819Z,12.00
2019-05-01T12:11:25.027Z,11.30
2019-05-01T12:12:25.213Z,11.90
2019-05-01T12:13:25.407Z,11.90
2019-05-01T12:14:25.611Z,13.20
2019-05-01T12:15:25.829Z,12.70
2019-05-01T12:16:26.031Z,13.00
2019-05-01T12:17:26.228Z,12.30
2019-05-01T12:18:26.433Z,11.80
2019-05-01T12:19:26.631Z,11.50
2019-05-01T12:20:26.820Z,11.80
2019-05-01T12:21:27.003Z,12.40
2019-05-01T12:22:27.224Z,12.40
2019-05-01T12:23:27.432Z,13.40
2019-05-01T12:24:27.672Z,13.30
2019-05-01T12:25:27.916Z,14.20
2019-05-01T12:26:28.070Z,14.20
2019-05-01T12:27:28.305Z,13.20
2019-05-01T12:28:28.492Z,13.20
2019-05-01T12:29:28.707Z,12.70
2019-05-01T12:30:28.903Z,13.10
2019-05-01T12:31:31.241Z,13.00
2019-05-01T12:32:29.316Z,11.50
2019-05-01T12:33:29.516Z,11.60
2019-05-01T12:34:29.700Z,13.10
2019-05-01T12:35:29.903Z,12.40
2019-05-01T12:36:36.518Z,12.90
2019-05-01T12:37:30.285Z,12.60
2019-05-01T12:38:30.524Z,12.60
2019-05-01T12:39:30.711Z,12.30
2019-05-01T12:40:30.912Z,13.30
2019-05-01T12:41:31.113Z,13.80
2019-05-01T12:42:31.414Z,14.70
2019-05-01T12:43:31.567Z,14.20
2019-05-01T12:44:31.813Z,12.90
2019-05-01T12:45:31.988Z,13.90
2019-05-01T12:46:32.183Z,13.50
2019-05-01T12:47:32.390Z,12.60
2019-05-01T12:48:32.587Z,12.20
2019-05-01T12:49:32.772Z,13.00
2019-05-01T12:50:32.971Z,13.60
2019-05-01T12:51:33.199Z,14.00
2019-05-01T12:52:33.384Z,14.50
2019-05-01T12:53:33.535Z,13.90
2019-05-01T12:54:33.729Z,14.20
2019-05-01T12:55:33.930Z,15.10
2019-05-01T12:56:34.241Z,15.10
2019-05-01T12:57:34.298Z,14.20
2019-05-01T12:58:34.483Z,14.40
2019-05-01T12:59:34.678Z,13.80